Time;durP1;ratioP1;P1;durP2;ratioP2;P2;SDS_P1;SDS_P2;PMS_P1;PMS_P2;Temp;Humidity;BMP_temperature;BMP_pressure;BME280_temperature;BME280_humidity;BME280_pressure;Samples;Min_cycle;Max_cycle;Signal;HPM_P1;HPM_P2
2021/10/10 00:01:49;;;;;;;8.73;5.40;;;;;;;7.47;100.00;102331.81;4992523;28;20671;-70
2021/10/10 00:04:15;;;;;;;5.97;4.83;;;;;;;7.42;100.00;102328.91;5025213;28;20208;-70
2021/10/10 00:06:41;;;;;;;6.03;4.93;;;;;;;7.43;100.00;102330.56;5020816;28;20213;-71
2021/10/10 00:09:06;;;;;;;6.20;5.23;;;;;;;7.47;100.00;102324.53;4979989;28;20673;-71
2021/10/10 00:11:31;;;;;;;5.93;4.83;;;;;;;7.33;100.00;102322.91;5005631;28;20231;-70
2021/10/10 00:13:57;;;;;;;5.93;4.93;;;;;;;7.35;100.00;102320.81;4999948;28;20208;-70
2021/10/10 00:16:25;;;;;;;7.13;5.33;;;;;;;7.41;100.00;102328.06;5006829;28;20221;-71
2021/10/10 00:18:53;;;;;;;8.20;5.40;;;;;;;7.31;100.00;102330.38;5014220;28;20173;-71
2021/10/10 00:21:21;;;;;;;6.30;4.87;;;;;;;7.22;100.00;102336.22;5002585;28;20212;-70
2021/10/10 00:23:51;;;;;;;6.17;5.03;;;;;;;7.23;100.00;102326.25;4983236;28;20223;-70
2021/10/10 00:26:19;;;;;;;8.17;5.07;;;;;;;7.09;100.00;102322.72;5025248;28;20220;-71
2021/10/10 00:28:44;;;;;;;9.43;5.40;;;;;;;7.13;100.00;102315.03;5015023;28;20564;-71
2021/10/10 00:31:10;;;;;;;6.47;5.10;;;;;;;7.19;100.00;102325.81;4985919;28;20212;-71
2021/10/10 00:33:36;;;;;;;7.23;5.00;;;;;;;7.02;100.00;102323.78;5031575;28;20200;-70
2021/10/10 00:36:08;;;;;;;7.07;5.50;;;;;;;7.05;100.00;102317.94;5014399;28;20216;-71
2021/10/10 00:38:37;;;;;;;8.33;5.67;;;;;;;6.91;100.00;102325.22;4996131;28;20697;-71
2021/10/10 00:41:04;;;;;;;6.47;5.70;;;;;;;6.87;100.00;102319.59;5014346;28;20364;-70
2021/10/10 00:43:32;;;;;;;9.13;5.97;;;;;;;6.90;100.00;102326.28;4999711;28;20223;-72
2021/10/10 00:45:58;;;;;;;7.53;5.57;;;;;;;6.87;100.00;102320.44;5031772;28;20294;-71
2021/10/10 00:48:26;;;;;;;10.23;6.10;;;;;;;6.81;100.00;102315.03;4996174;28;20607;-71
2021/10/10 00:50:54;;;;;;;6.83;5.47;;;;;;;6.88;100.00;102322.09;5001819;28;20248;-70
2021/10/10 00:53:22;;;;;;;9.00;6.17;;;;;;;6.68;100.00;102325.81;5030556;28;20266;-71
2021/10/10 00:55:52;;;;;;;8.73;5.97;;;;;;;6.66;100.00;102323.31;5031156;28;20220;-70
2021/10/10 00:58:21;;;;;;;6.73;5.70;;;;;;;6.57;100.00;102324.59;5013092;28;20185;-70
2021/10/10 01:00:46;;;;;;;7.03;5.40;;;;;;;6.66;100.00;102319.81;4978873;28;20742;-70
2021/10/10 01:03:14;;;;;;;7.90;5.80;;;;;;;6.68;100.00;102315.84;5029237;28;20279;-71
2021/10/10 01:05:39;;;;;;;7.60;5.37;;;;;;;6.70;100.00;102313.81;4992896;28;20232;-71
2021/10/10 01:08:07;;;;;;;7.53;5.47;;;;;;;6.70;100.00;102313.81;5008099;28;20185;-70
2021/10/10 01:10:35;;;;;;;8.93;5.67;;;;;;;6.62;100.00;102316.69;4980118;28;20224;-70
2021/10/10 01:13:03;;;;;;;6.77;5.03;;;;;;;6.60;100.00;102313.38;5009608;28;20220;-70
2021/10/10 01:15:29;;;;;;;8.27;5.73;;;;;;;6.47;100.00;102306.28;5013925;28;20222;-71
2021/10/10 01:17:57;;;;;;;9.63;6.10;;;;;;;6.52;100.00;102308.16;5018455;28;20193;-71
2021/10/10 01:20:23;;;;;;;6.20;5.53;;;;;;;6.48;100.00;102297.16;4994337;28;20263;-70
2021/10/10 01:22:53;;;;;;;7.73;5.47;;;;;;;6.33;100.00;102307.28;4989446;28;20666;-71
2021/10/10 01:25:20;;;;;;;6.90;5.47;;;;;;;6.27;100.00;102295.44;5014334;28;20188;-72
2021/10/10 01:27:48;;;;;;;7.50;5.57;;;;;;;6.39;100.00;102292.97;5004361;28;20189;-71
2021/10/10 01:30:17;;;;;;;5.97;5.23;;;;;;;6.39;100.00;102282.19;4978329;28;20650;-70
2021/10/10 01:32:52;;;;;;;8.07;5.33;;;;;;;6.50;100.00;102289.69;5003662;28;20200;-70
2021/10/10 01:35:19;;;;;;;7.00;5.80;;;;;;;6.44;100.00;102285.94;4989732;28;20240;-70
2021/10/10 01:37:45;;;;;;;8.30;5.90;;;;;;;6.13;100.00;102286.72;5010286;28;20181;-71
2021/10/10 01:40:14;;;;;;;6.40;5.37;;;;;;;6.11;100.00;102278.81;5011343;28;20212;-70
2021/10/10 01:42:42;;;;;;;9.27;5.97;;;;;;;6.16;100.00;102276.34;5013485;28;20291;-70
2021/10/10 01:45:19;;;;;;;10.13;5.90;;;;;;;6.08;100.00;102273.84;4974957;28;20188;-70
2021/10/10 01:47:45;;;;;;;6.80;5.17;;;;;;;6.02;100.00;102280.03;4989689;28;20565;-70
2021/10/10 01:50:10;;;;;;;6.10;5.40;;;;;;;5.98;100.00;102272.56;4997457;28;20192;-70
2021/10/10 01:52:37;;;;;;;6.57;5.83;;;;;;;5.64;100.00;102274.47;5026217;28;20216;-70
2021/10/10 01:55:03;;;;;;;8.03;5.63;;;;;;;5.53;100.00;102283.13;4994107;28;20200;-70
2021/10/10 01:57:29;;;;;;;7.43;5.67;;;;;;;5.52;100.00;102276.06;5013553;28;20172;-71
2021/10/10 01:59:57;;;;;;;7.03;5.70;;;;;;;5.41;100.00;102276.66;5014120;28;20177;-70
2021/10/10 02:02:23;;;;;;;9.43;5.63;;;;;;;5.30;100.00;102282.59;4995173;28;20220;-70
2021/10/10 02:04:48;;;;;;;6.97;5.37;;;;;;;5.37;100.00;102288.84;4987733;28;20193;-70
2021/10/10 02:07:14;;;;;;;8.57;5.70;;;;;;;5.08;100.00;102283.69;4958320;28;20214;-70
2021/10/10 02:09:45;;;;;;;6.00;5.33;;;;;;;5.26;100.00;102280.50;5030200;28;20693;-70
2021/10/10 02:12:13;;;;;;;7.27;5.60;;;;;;;5.38;100.00;102271.63;5029384;28;20228;-71
2021/10/10 02:14:38;;;;;;;8.67;5.60;;;;;;;5.60;100.00;102273.22;4994891;28;20184;-70
2021/10/10 02:17:04;;;;;;;7.50;5.90;;;;;;;5.64;100.00;102263.69;5009525;28;20707;-70
2021/10/10 02:19:34;;;;;;;9.07;5.53;;;;;;;5.60;100.00;102260.56;5027982;28;20665;-70
2021/10/10 02:21:59;;;;;;;7.43;6.20;;;;;;;5.62;100.00;102260.34;5030767;28;20315;-71
2021/10/10 02:24:25;;;;;;;7.93;6.00;;;;;;;5.51;100.00;102263.63;4997265;28;20197;-71
2021/10/10 02:26:53;;;;;;;7.30;5.83;;;;;;;5.42;100.00;102260.28;5009449;28;20228;-70
2021/10/10 02:29:20;;;;;;;6.70;5.70;;;;;;;5.27;100.00;102261.44;5008855;28;20188;-71
2021/10/10 02:31:46;;;;;;;6.97;5.63;;;;;;;5.05;100.00;102251.78;5030719;28;20240;-71
2021/10/10 02:34:12;;;;;;;7.60;5.50;;;;;;;4.94;100.00;102248.78;5010805;28;20217;-70
2021/10/10 02:36:41;;;;;;;6.27;5.33;;;;;;;5.15;100.00;102249.56;4992989;28;20220;-70
2021/10/10 02:39:07;;;;;;;5.97;5.37;;;;;;;5.18;100.00;102262.66;5022915;28;20278;-70
2021/10/10 02:41:33;;;;;;;7.63;5.33;;;;;;;5.15;100.00;102254.94;4993152;28;20224;-71
2021/10/10 02:43:58;;;;;;;7.43;5.47;;;;;;;5.12;100.00;102251.81;5011248;28;20212;-70
2021/10/10 02:46:24;;;;;;;6.40;5.30;;;;;;;4.97;100.00;102247.59;5029274;28;20239;-70
2021/10/10 02:48:51;;;;;;;6.77;5.00;;;;;;;4.97;100.00;102251.94;5021873;28;20185;-70
2021/10/10 02:51:17;;;;;;;7.87;5.30;;;;;;;5.08;100.00;102250.56;5009543;28;20341;-71
2021/10/10 02:53:42;;;;;;;6.80;5.50;;;;;;;5.08;100.00;102240.59;4999403;28;20579;-70
2021/10/10 02:56:08;;;;;;;6.67;5.30;;;;;;;5.09;100.00;102252.19;5012422;28;20234;-71
2021/10/10 02:58:36;;;;;;;6.90;6.13;;;;;;;5.12;100.00;102239.19;5025385;28;20185;-70
2021/10/10 03:01:01;;;;;;;6.40;5.23;;;;;;;4.96;100.00;102237.84;4978147;28;20356;-70
2021/10/10 03:03:27;;;;;;;6.93;5.23;;;;;;;4.91;100.00;102229.50;4995729;28;20213;-70
2021/10/10 03:05:54;;;;;;;8.13;5.53;;;;;;;4.82;100.00;102228.03;4993363;28;20714;-70
2021/10/10 03:08:20;;;;;;;6.63;4.83;;;;;;;4.67;100.00;102229.97;4977310;28;20185;-70
2021/10/10 03:10:46;;;;;;;6.17;5.40;;;;;;;4.61;100.00;102225.38;5009896;28;20256;-69
2021/10/10 03:13:11;;;;;;;8.70;5.70;;;;;;;4.61;100.00;102236.97;4978111;28;20694;-70
2021/10/10 03:15:40;;;;;;;8.23;6.30;;;;;;;4.50;100.00;102231.28;4995853;28;20230;-71
2021/10/10 03:18:11;;;;;;;6.67;6.07;;;;;;;4.35;100.00;102230.53;5013658;28;20181;-71
2021/10/10 03:20:41;;;;;;;7.13;6.10;;;;;;;4.09;100.00;102237.53;4974847;28;20292;-71
2021/10/10 03:23:09;;;;;;;7.37;5.53;;;;;;;4.21;100.00;102235.97;5006443;28;20672;-71
2021/10/10 03:25:34;;;;;;;6.43;5.83;;;;;;;4.23;100.00;102217.78;4993510;28;20751;-71
2021/10/10 03:28:00;;;;;;;7.37;6.50;;;;;;;4.24;100.00;102220.28;5029582;28;20188;-71
2021/10/10 03:30:28;;;;;;;7.40;6.60;;;;;;;3.92;100.00;102227.22;4997403;28;20185;-71
2021/10/10 03:32:53;;;;;;;8.97;5.90;;;;;;;3.99;100.00;102228.09;5009518;28;20225;-70
2021/10/10 03:35:21;;;;;;;7.30;6.30;;;;;;;4.09;100.00;102220.56;4997397;28;20197;-70
2021/10/10 03:37:47;;;;;;;8.40;6.47;;;;;;;4.19;100.00;102223.75;4981221;28;20196;-71
2021/10/10 03:40:13;;;;;;;8.83;6.23;;;;;;;4.20;100.00;102221.72;5013999;28;20185;-71
2021/10/10 03:42:41;;;;;;;9.30;6.30;;;;;;;4.29;100.00;102219.72;4980527;28;20198;-70
2021/10/10 03:45:08;;;;;;;8.60;6.40;;;;;;;4.15;100.00;102212.56;4992093;28;20192;-71
2021/10/10 03:47:34;;;;;;;9.00;6.37;;;;;;;4.27;100.00;102211.84;5015933;28;20672;-70
2021/10/10 03:50:00;;;;;;;10.10;6.17;;;;;;;4.32;100.00;102220.19;5007184;28;20578;-71
2021/10/10 03:52:27;;;;;;;8.57;6.17;;;;;;;4.16;100.00;102213.38;4996032;28;20237;-71
2021/10/10 03:57:36;;;;;;;8.33;6.00;;;;;;;4.05;100.00;102211.25;5032151;28;20212;-70
2021/10/10 04:00:09;;;;;;;7.90;6.07;;;;;;;4.02;100.00;102208.94;5024594;28;20185;-71
2021/10/10 04:02:43;;;;;;;8.97;6.07;;;;;;;3.96;100.00;102217.75;4998171;28;20212;-71
2021/10/10 04:08:10;;;;;;;6.97;5.87;;;;;;;3.97;100.00;102214.03;4977068;28;20185;-71
2021/10/10 04:10:36;;;;;;;8.47;6.33;;;;;;;4.12;100.00;102204.03;4971297;28;20221;-71
2021/10/10 04:13:02;;;;;;;7.87;6.40;;;;;;;4.17;100.00;102205.13;4980165;28;20311;-71
2021/10/10 04:15:30;;;;;;;8.87;6.70;;;;;;;4.16;100.00;102199.94;5005331;28;20231;-71
2021/10/10 04:17:56;;;;;;;7.80;6.27;;;;;;;4.19;100.00;102202.25;5000538;28;20185;-70
2021/10/10 04:20:22;;;;;;;9.27;6.60;;;;;;;4.14;100.00;102196.63;5025376;28;20187;-72
2021/10/10 04:22:47;;;;;;;8.50;6.93;;;;;;;4.02;100.00;102190.09;4996723;28;20237;-70
2021/10/10 04:25:13;;;;;;;8.67;6.60;;;;;;;3.92;100.00;102200.38;5002282;28;20192;-70
2021/10/10 04:27:41;;;;;;;10.13;6.90;;;;;;;3.87;100.00;102192.03;5016576;28;20187;-71
2021/10/10 04:30:09;;;;;;;8.07;6.37;;;;;;;4.01;100.00;102193.81;5007616;28;20231;-71
2021/10/10 04:32:34;;;;;;;8.77;6.77;;;;;;;4.17;100.00;102185.50;4977134;28;20214;-71
2021/10/10 04:35:00;;;;;;;7.57;6.20;;;;;;;4.01;100.00;102189.28;4979522;28;20232;-70
2021/10/10 04:37:28;;;;;;;7.53;6.20;;;;;;;4.12;100.00;102182.53;4992040;28;20228;-71
2021/10/10 04:39:53;;;;;;;9.97;6.60;;;;;;;4.06;100.00;102181.44;4963677;28;20174;-71
2021/10/10 04:42:19;;;;;;;7.77;6.20;;;;;;;4.05;100.00;102179.81;4977560;28;20237;-71
2021/10/10 04:44:48;;;;;;;10.37;6.57;;;;;;;3.98;100.00;102167.34;4992509;28;20232;-70
2021/10/10 04:47:16;;;;;;;8.53;5.83;;;;;;;3.87;100.00;102165.16;4958965;28;20252;-70
2021/10/10 04:49:44;;;;;;;6.87;5.70;;;;;;;3.82;100.00;102167.59;4992557;28;20182;-71
2021/10/10 04:52:12;;;;;;;7.33;6.00;;;;;;;3.72;100.00;102175.13;4989972;28;20280;-71
2021/10/10 04:54:38;;;;;;;7.33;5.77;;;;;;;3.60;100.00;102168.59;4992228;28;20305;-71
2021/10/10 04:57:03;;;;;;;8.57;6.23;;;;;;;3.55;100.00;102168.34;5011543;28;20721;-72
2021/10/10 04:59:29;;;;;;;7.67;5.87;;;;;;;3.52;100.00;102165.22;5031441;28;20196;-70
2021/10/10 05:01:55;;;;;;;8.33;6.37;;;;;;;3.45;100.00;102170.50;5015813;28;20225;-71
2021/10/10 05:04:20;;;;;;;7.57;6.43;;;;;;;3.34;100.00;102164.78;4988871;28;20193;-71
2021/10/10 05:06:48;;;;;;;8.87;6.23;;;;;;;3.35;100.00;102168.28;5012279;28;20225;-71
2021/10/10 05:09:16;;;;;;;6.97;5.90;;;;;;;3.28;100.00;102165.53;4995526;28;20311;-71
2021/10/10 05:11:45;;;;;;;7.23;5.70;;;;;;;3.24;100.00;102161.59;5012199;28;20225;-70
2021/10/10 05:14:10;;;;;;;7.23;6.00;;;;;;;3.36;100.00;102165.44;5011646;28;20180;-70
2021/10/10 05:16:38;;;;;;;7.53;5.63;;;;;;;3.30;100.00;102160.00;5004889;28;20217;-71
2021/10/10 05:19:06;;;;;;;7.90;6.37;;;;;;;3.22;100.00;102162.78;5031314;28;20183;-71
2021/10/10 05:21:36;;;;;;;7.33;6.20;;;;;;;3.24;100.00;102168.78;5006335;28;20236;-71
2021/10/10 05:24:06;;;;;;;6.70;6.00;;;;;;;3.27;100.00;102155.81;5006141;28;20224;-71
2021/10/10 05:26:32;;;;;;;8.63;6.37;;;;;;;3.30;100.00;102160.00;5029665;28;20256;-71
2021/10/10 05:28:57;;;;;;;10.93;6.60;;;;;;;3.30;100.00;102149.25;5004915;28;20189;-72
2021/10/10 05:31:25;;;;;;;8.43;6.17;;;;;;;3.31;100.00;102164.31;5006214;28;20235;-72
2021/10/10 05:33:53;;;;;;;8.73;6.70;;;;;;;3.30;100.00;102154.63;4998061;28;20220;-71
2021/10/10 05:36:18;;;;;;;7.80;6.20;;;;;;;3.27;100.00;102155.81;4970986;28;20239;-72
2021/10/10 05:38:46;;;;;;;9.10;6.80;;;;;;;3.22;100.00;102155.56;4979856;28;20635;-72
2021/10/10 05:41:16;;;;;;;9.70;6.40;;;;;;;3.28;100.00;102151.28;4993506;28;20590;-71
2021/10/10 05:43:42;;;;;;;7.93;6.30;;;;;;;3.31;100.00;102156.28;4995803;28;20229;-72
2021/10/10 05:46:10;;;;;;;7.67;6.50;;;;;;;3.31;100.00;102151.72;5010384;28;20689;-71
2021/10/10 05:48:36;;;;;;;9.73;7.00;;;;;;;3.36;100.00;102143.94;5011550;28;20181;-71
2021/10/10 05:51:01;;;;;;;9.13;7.67;;;;;;;3.48;100.00;102143.28;5011446;28;20213;-70
2021/10/10 05:53:27;;;;;;;8.80;7.40;;;;;;;3.59;100.00;102156.19;5014868;28;20204;-71
2021/10/10 05:56:03;;;;;;;9.40;7.17;;;;;;;3.70;100.00;102147.63;5030462;28;20650;-71
2021/10/10 05:58:33;;;;;;;11.77;7.93;;;;;;;3.63;100.00;102141.34;5005978;28;20185;-71
2021/10/10 06:01:02;;;;;;;10.87;8.43;;;;;;;3.75;100.00;102137.13;4959841;28;20304;-72
2021/10/10 06:03:27;;;;;;;9.57;7.63;;;;;;;3.92;100.00;102135.88;5004099;28;20204;-73
2021/10/10 06:05:53;;;;;;;10.63;8.03;;;;;;;4.00;100.00;102143.78;4993592;28;20271;-70
2021/10/10 06:08:19;;;;;;;9.13;7.80;;;;;;;4.04;100.00;102137.00;5011690;28;20181;-71
2021/10/10 06:10:44;;;;;;;11.03;8.20;;;;;;;4.15;100.00;102131.09;5001418;28;20235;-77
2021/10/10 06:13:10;;;;;;;11.40;7.97;;;;;;;4.23;100.00;102124.53;5015805;28;20275;-78
2021/10/10 06:15:36;;;;;;;11.10;8.63;;;;;;;4.32;100.00;102134.13;5034977;28;20304;-78
2021/10/10 06:18:08;;;;;;;10.27;8.37;;;;;;;4.24;100.00;102122.66;5006264;28;20621;-70
2021/10/10 06:20:35;;;;;;;13.60;8.87;;;;;;;4.41;100.00;102122.16;5010968;28;20245;-70
2021/10/10 06:23:03;;;;;;;11.50;8.67;;;;;;;4.57;100.00;102131.81;5024436;28;20211;-71
2021/10/10 06:25:28;;;;;;;11.23;8.60;;;;;;;4.67;100.00;102127.72;5013232;28;20220;-72
2021/10/10 06:27:54;;;;;;;10.33;8.70;;;;;;;4.78;100.00;102121.78;4983285;28;20178;-70
2021/10/10 06:30:24;;;;;;;8.83;7.70;;;;;;;4.78;100.00;102132.53;4958266;28;20188;-72
2021/10/10 06:32:50;;;;;;;10.80;8.53;;;;;;;4.87;100.00;102120.59;4986957;28;20228;-72
2021/10/10 06:35:15;;;;;;;10.63;8.40;;;;;;;4.98;100.00;102126.22;5006821;28;20189;-71
2021/10/10 06:37:41;;;;;;;9.57;8.00;;;;;;;5.02;100.00;102131.03;4993905;28;20670;-74
2021/10/10 06:40:09;;;;;;;8.83;7.77;;;;;;;5.07;100.00;102139.34;5010286;28;20177;-70
2021/10/10 06:42:37;;;;;;;13.93;8.53;;;;;;;5.11;100.00;102137.91;5009660;28;20247;-71
2021/10/10 06:45:06;;;;;;;10.43;8.07;;;;;;;5.36;100.00;102141.72;5005386;28;20647;-72
2021/10/10 06:47:36;;;;;;;9.47;8.07;;;;;;;5.58;100.00;102129.75;5008440;28;20239;-71
2021/10/10 06:50:05;;;;;;;9.47;7.30;;;;;;;5.64;100.00;102128.94;5010215;28;20271;-73
2021/10/10 06:52:33;;;;;;;12.67;8.40;;;;;;;5.74;100.00;102131.06;4974678;28;20256;-71
2021/10/10 06:54:59;;;;;;;8.73;7.83;;;;;;;5.80;100.00;102130.22;4977030;28;20220;-70
2021/10/10 06:57:29;;;;;;;8.73;7.60;;;;;;;5.97;100.00;102120.72;4989859;28;20213;-78
2021/10/10 06:59:58;;;;;;;9.47;7.43;;;;;;;6.11;100.00;102126.94;4994459;28;20196;-73
2021/10/10 07:02:24;;;;;;;10.30;7.83;;;;;;;6.26;100.00;102114.91;5011304;28;20227;-72
2021/10/10 07:04:50;;;;;;;9.53;7.80;;;;;;;6.27;100.00;102112.00;5010210;28;20189;-72
2021/10/10 07:07:16;;;;;;;8.97;7.33;;;;;;;6.43;100.00;102110.72;5011391;28;20220;-72
2021/10/10 07:09:41;;;;;;;10.67;7.43;;;;;;;6.46;100.00;102121.09;5030752;28;20180;-72
2021/10/10 07:12:10;;;;;;;8.47;6.93;;;;;;;6.50;100.00;102122.34;5016348;28;20243;-73
2021/10/10 07:14:35;;;;;;;9.27;7.30;;;;;;;6.66;100.00;102117.34;5012804;28;20190;-72
2021/10/10 07:17:07;;;;;;;10.07;7.53;;;;;;;6.69;100.00;102122.31;4990217;28;20236;-71
2021/10/10 07:19:55;;;;;;;11.17;7.90;;;;;;;6.85;100.00;102114.59;4997127;28;20181;-73
2021/10/10 07:25:08;;;;;;;8.93;7.23;;;;;;;7.03;100.00;102117.41;4980239;28;20189;-72
2021/10/10 07:27:47;;;;;;;9.40;7.07;;;;;;;7.24;100.00;102127.94;4963088;28;20718;-73
2021/10/10 07:30:13;;;;;;;10.13;7.00;;;;;;;7.19;100.00;102130.47;5016669;28;20204;-71
2021/10/10 07:32:46;;;;;;;9.20;7.30;;;;;;;7.26;100.00;102126.69;4999902;28;20693;-72
2021/10/10 07:35:11;;;;;;;9.60;7.70;;;;;;;7.33;100.00;102136.41;5003196;28;20189;-72
2021/10/10 07:37:37;;;;;;;9.97;8.17;;;;;;;7.49;100.00;102133.22;4977548;28;20212;-72
2021/10/10 07:40:04;;;;;;;9.73;7.27;;;;;;;7.69;100.00;102123.09;5016659;28;20725;-72
2021/10/10 07:42:30;;;;;;;8.63;7.20;;;;;;;7.62;100.00;102121.47;5016624;28;20223;-72
2021/10/10 07:45:06;;;;;;;9.40;7.63;;;;;;;7.78;100.00;102127.19;4999180;28;20193;-73
2021/10/10 07:47:47;;;;;;;9.30;7.03;;;;;;;7.78;100.00;102125.34;4998200;28;20215;-73
2021/10/10 07:50:15;;;;;;;9.80;7.17;;;;;;;8.00;100.00;102114.97;4978907;28;20189;-72
2021/10/10 07:52:43;;;;;;;8.93;7.20;;;;;;;8.10;100.00;102117.00;4961107;28;20229;-73
2021/10/10 07:55:09;;;;;;;9.40;7.20;;;;;;;8.08;100.00;102121.78;5029798;28;20188;-72
2021/10/10 07:57:35;;;;;;;10.20;7.67;;;;;;;8.18;100.00;102122.13;5032810;28;20644;-71
2021/10/10 08:00:06;;;;;;;8.87;7.43;;;;;;;8.18;100.00;102116.72;5017551;28;20189;-72
2021/10/10 08:02:53;;;;;;;8.63;7.73;;;;;;;8.27;100.00;102117.28;5012813;28;20221;-72
2021/10/10 08:05:24;;;;;;;9.53;7.33;;;;;;;8.48;100.00;102123.13;4984035;28;20211;-72
2021/10/10 08:07:50;;;;;;;9.07;7.83;;;;;;;8.63;100.00;102110.88;4980450;28;20188;-72
2021/10/10 08:10:21;;;;;;;10.30;7.27;;;;;;;8.70;100.00;102110.81;4996847;28;20181;-72
2021/10/10 08:12:46;;;;;;;8.20;7.27;;;;;;;8.79;100.00;102109.47;5013897;28;20217;-71
2021/10/10 08:15:16;;;;;;;10.90;7.67;;;;;;;9.06;100.00;102104.34;5013087;28;20180;-72
2021/10/10 08:17:43;;;;;;;10.10;7.97;;;;;;;9.05;100.00;102107.28;5016862;28;20196;-72
2021/10/10 08:20:09;;;;;;;8.60;7.53;;;;;;;9.22;100.00;102104.53;5001440;28;20193;-72
2021/10/10 08:22:36;;;;;;;9.30;7.43;;;;;;;9.43;100.00;102108.66;4997070;28;20204;-73
2021/10/10 08:25:07;;;;;;;10.97;7.83;;;;;;;9.19;100.00;102097.94;5011624;28;20176;-73
2021/10/10 08:27:35;;;;;;;9.30;7.13;;;;;;;9.55;100.00;102104.13;5035447;28;20607;-72
2021/10/10 08:30:04;;;;;;;9.00;6.80;;;;;;;9.65;100.00;102097.91;5021293;28;20172;-71
2021/10/10 08:32:30;;;;;;;9.17;7.23;;;;;;;9.83;100.00;102100.53;4996731;28;20288;-71
2021/10/10 08:34:55;;;;;;;7.73;6.70;;;;;;;9.88;100.00;102105.28;4994728;28;20604;-71
2021/10/10 08:37:23;;;;;;;7.03;6.30;;;;;;;10.00;100.00;102104.28;5011735;28;20225;-71
2021/10/10 08:39:49;;;;;;;9.67;7.17;;;;;;;10.15;100.00;102102.78;5012603;28;20177;-71
2021/10/10 08:42:14;;;;;;;8.20;6.90;;;;;;;10.35;100.00;102107.84;4995822;28;20785;-72
2021/10/10 08:44:45;;;;;;;8.87;7.07;;;;;;;10.29;100.00;102095.22;5003882;28;20188;-71
2021/10/10 08:47:14;;;;;;;9.43;6.87;;;;;;;10.37;100.00;102105.75;5014461;28;20221;-73
2021/10/10 08:49:42;;;;;;;7.77;6.87;;;;;;;10.81;100.00;102099.47;4991937;28;20638;-71
2021/10/10 08:52:14;;;;;;;8.13;6.90;;;;;;;10.74;99.82;102106.09;5030934;28;20248;-70
2021/10/10 08:54:40;;;;;;;7.67;6.17;;;;;;;11.10;98.16;102097.63;5025987;28;20189;-71
2021/10/10 08:57:09;;;;;;;9.80;6.70;;;;;;;11.29;95.91;102098.03;5011161;28;20287;-72
2021/10/10 08:59:40;;;;;;;7.10;6.40;;;;;;;11.60;96.18;102097.59;4984668;28;20191;-73
2021/10/10 09:02:17;;;;;;;7.40;6.60;;;;;;;11.37;90.27;102096.81;5015314;28;20236;-71
2021/10/10 09:04:43;;;;;;;9.57;6.50;;;;;;;11.65;89.57;102094.97;5005924;28;20254;-72
2021/10/10 09:07:13;;;;;;;8.70;6.77;;;;;;;11.69;89.85;102079.81;4991928;28;20213;-72
2021/10/10 09:09:41;;;;;;;8.50;6.57;;;;;;;11.75;89.53;102079.63;5000202;28;20271;-72
2021/10/10 09:12:10;;;;;;;8.10;6.70;;;;;;;11.61;89.73;102074.75;5014460;28;20220;-71
2021/10/10 09:14:42;;;;;;;7.43;6.40;;;;;;;11.74;89.45;102069.84;5028519;28;20555;-73
2021/10/10 09:17:17;;;;;;;8.37;6.50;;;;;;;11.87;86.51;102074.13;5011799;28;20220;-73
2021/10/10 09:19:53;;;;;;;7.00;6.03;;;;;;;12.25;87.07;102077.78;4982825;28;20275;-72
2021/10/10 09:22:20;;;;;;;8.17;6.77;;;;;;;12.69;84.67;102084.75;5030695;28;20374;-71
2021/10/10 09:24:48;;;;;;;7.13;6.43;;;;;;;12.68;84.96;102076.00;5011949;28;20540;-72
2021/10/10 09:27:14;;;;;;;8.70;6.47;;;;;;;12.69;86.46;102073.84;4994378;28;20224;-72
2021/10/10 09:29:42;;;;;;;7.10;6.40;;;;;;;12.74;83.35;102075.78;4980406;28;20273;-72
2021/10/10 09:32:12;;;;;;;7.47;6.30;;;;;;;13.27;79.25;102068.63;5014365;28;20228;-71
2021/10/10 09:34:43;;;;;;;7.17;6.27;;;;;;;13.26;81.48;102073.25;5020265;28;20193;-73
2021/10/10 09:37:25;;;;;;;7.73;5.93;;;;;;;13.35;76.75;102066.28;4996078;28;20236;-72
2021/10/10 09:39:59;;;;;;;6.77;5.70;;;;;;;13.51;77.75;102062.59;4997861;28;20221;-71
2021/10/10 09:42:41;;;;;;;7.17;6.13;;;;;;;13.62;74.73;102062.44;5014781;28;20224;-72
2021/10/10 09:45:23;;;;;;;8.70;6.13;;;;;;;13.60;75.74;102061.88;5015735;28;21078;-72
2021/10/10 09:48:03;;;;;;;10.23;5.90;;;;;;;13.79;73.02;102060.44;4977138;28;20603;-72
2021/10/10 09:50:31;;;;;;;6.20;5.60;;;;;;;13.66;73.54;102057.28;4976789;28;20717;-73
2021/10/10 09:53:05;;;;;;;7.60;5.90;;;;;;;13.50;71.62;102066.44;4977977;28;20209;-72
2021/10/10 09:55:35;;;;;;;6.77;5.67;;;;;;;13.69;70.43;102075.91;5012272;28;20295;-72
2021/10/10 09:58:00;;;;;;;7.53;6.07;;;;;;;13.59;72.61;102076.63;5010593;28;20175;-71
2021/10/10 10:00:33;;;;;;;7.47;6.47;;;;;;;13.86;72.76;102069.22;4997589;28;20176;-71
2021/10/10 10:03:11;;;;;;;8.90;6.03;;;;;;;14.14;71.06;102066.22;5013835;28;20196;-72
2021/10/10 10:05:39;;;;;;;6.73;5.77;;;;;;;14.17;72.06;102060.25;5011731;28;20220;-71
2021/10/10 10:08:04;;;;;;;6.23;5.50;;;;;;;14.23;70.43;102056.47;5010333;28;20185;-71
2021/10/10 10:10:31;;;;;;;6.83;5.83;;;;;;;13.93;71.08;102059.75;4997453;28;20707;-71
2021/10/10 10:13:00;;;;;;;7.00;5.80;;;;;;;14.31;72.06;102060.38;5029955;28;20200;-71
2021/10/10 10:15:34;;;;;;;7.80;6.00;;;;;;;13.79;71.69;102057.72;5011823;28;20216;-73
2021/10/10 10:17:59;;;;;;;6.70;5.30;;;;;;;13.88;71.48;102058.88;4992509;28;20190;-71
2021/10/10 10:20:28;;;;;;;6.67;5.93;;;;;;;13.68;71.79;102044.19;5004312;28;20221;-71
2021/10/10 10:22:57;;;;;;;6.27;5.67;;;;;;;13.91;72.17;102042.78;4985168;28;20926;-71
2021/10/10 10:25:25;;;;;;;7.33;5.60;;;;;;;14.11;72.04;102039.44;5007050;28;20237;-72
2021/10/10 10:27:52;;;;;;;7.80;6.00;;;;;;;13.95;74.46;102040.34;4990161;28;20229;-74
2021/10/10 10:30:18;;;;;;;6.93;5.73;;;;;;;13.86;73.43;102048.22;4973780;28;20193;-72
2021/10/10 10:32:46;;;;;;;7.50;5.53;;;;;;;13.83;77.14;102042.47;5006828;28;20714;-73
2021/10/10 10:35:18;;;;;;;6.83;5.80;;;;;;;13.90;74.97;102032.97;5002947;28;20231;-74
2021/10/10 10:37:44;;;;;;;7.70;5.43;;;;;;;13.82;74.53;102039.97;4978138;28;20191;-72
2021/10/10 10:40:14;;;;;;;7.17;5.23;;;;;;;14.27;73.13;102034.66;5009460;28;20185;-73
2021/10/10 10:42:41;;;;;;;7.73;5.73;;;;;;;13.97;69.97;102024.53;5006215;28;20215;-72
2021/10/10 10:45:37;;;;;;;7.70;5.20;;;;;;;13.92;71.15;102029.97;5008942;28;20183;-72
2021/10/10 10:48:06;;;;;;;6.30;5.70;;;;;;;14.29;71.77;102024.28;4992281;28;20284;-75
2021/10/10 10:50:43;;;;;;;7.13;5.30;;;;;;;14.43;72.58;102011.78;4993398;28;20642;-73
2021/10/10 10:53:09;;;;;;;8.73;5.87;;;;;;;14.06;73.47;102009.34;5002031;28;20240;-73
2021/10/10 10:55:37;;;;;;;7.47;5.87;;;;;;;13.97;73.10;101994.47;4993546;28;20212;-73
2021/10/10 10:58:09;;;;;;;6.87;5.37;;;;;;;13.97;74.76;101989.00;4973525;28;20246;-71
2021/10/10 11:00:50;;;;;;;6.90;5.40;;;;;;;14.10;74.71;101994.06;5004449;28;20303;-72
2021/10/10 11:03:22;;;;;;;7.43;5.60;;;;;;;13.96;76.31;101981.91;5012511;28;20231;-72
2021/10/10 11:06:19;;;;;;;7.20;5.63;;;;;;;13.97;73.69;101994.47;5004426;28;20745;-72
2021/10/10 11:08:44;;;;;;;8.93;5.70;;;;;;;14.33;73.31;101989.84;4996561;28;20895;-72
2021/10/10 11:11:22;;;;;;;7.83;5.50;;;;;;;14.05;73.96;101988.59;5010246;28;20225;-73
2021/10/10 11:13:55;;;;;;;6.00;5.40;;;;;;;14.10;72.30;101988.59;5029128;28;20634;-73
2021/10/10 11:16:31;;;;;;;6.03;5.10;;;;;;;14.35;75.11;101997.78;5011470;28;20759;-73
2021/10/10 11:18:57;;;;;;;6.47;5.47;;;;;;;14.54;71.89;101996.25;4995075;28;20176;-73
2021/10/10 11:21:30;;;;;;;6.03;5.23;;;;;;;14.73;70.95;102001.00;5009402;28;20710;-72
2021/10/10 11:23:59;;;;;;;7.43;5.20;;;;;;;14.80;69.39;102001.59;5029420;28;20678;-72
2021/10/10 11:26:25;;;;;;;6.53;5.37;;;;;;;14.93;70.04;102007.41;4995202;28;20228;-72
2021/10/10 11:28:55;;;;;;;6.00;4.90;;;;;;;15.11;64.52;102004.19;4977246;28;20189;-72
2021/10/10 11:31:30;;;;;;;6.70;4.70;;;;;;;15.40;67.62;101997.97;4977476;28;20225;-72
2021/10/10 11:33:59;;;;;;;7.07;4.97;;;;;;;15.69;65.55;101997.19;5005788;28;20196;-73
2021/10/10 11:36:40;;;;;;;7.90;4.90;;;;;;;15.46;64.54;101996.91;4985165;28;20218;-71
2021/10/10 11:39:09;;;;;;;5.60;4.93;;;;;;;15.67;62.74;101991.16;4986122;28;20280;-72